^^
Grace C. Lehan Memorial Weather Station Historical Data
Daily Summary for January 22, 2022 Units:  Metric    English   Both
Daily Weekly Monthly Yearly
  High: Low: Average:
Temperature: -2 °C -12.9 °C -7.5 °C
Dew Point: -9.4 °C -17.7 °C -13.7 °C
Humidity: 76% 53% 62%
Wind Speed: 7.1km/h 0km/h 1.9km/h
Wind Gust: 22.5km/h - -
Wind- - WSW
Pressure: 1034.1 hPa 1019.5 hPa -
Precipitation: 0 mm    
 
 
Tabular Data for January 22, 2022
Time Temperature Dew Point Pressure Wind Wind Speed Wind Gust Humidity Rainfall Rate (Hourly) solar
00:04 -9.4 °C -16.2 °C 1034.1 hPa NNW 3.1 km/h 14.5 km/h 58% 0 mm 0 W/m2
00:09 -9.4 °C -16.2 °C 1034.1 hPa NNW 4 km/h 11.3 km/h 58% 0 mm 0 W/m2
00:14 -9.5 °C -16.2 °C 1034.1 hPa NNW 2.9 km/h 11.3 km/h 58% 0 mm 0 W/m2
00:19 -9.5 °C -16.4 °C 1034.1 hPa North 2.4 km/h 11.3 km/h 57.1% 0 mm 0 W/m2
00:24 -9.5 °C -16.2 °C 1034.1 hPa NNW 1.9 km/h 16.1 km/h 58% 0 mm 0 W/m2
00:29 -9.6 °C -16.3 °C 1033.7 hPa NNW 2.6 km/h 16.1 km/h 58% 0 mm 0 W/m2
00:34 -9.6 °C -16.4 °C 1033.7 hPa NNW 3.1 km/h 16.1 km/h 57.3% 0 mm 0 W/m2
00:39 -9.7 °C -16.6 °C 1033.4 hPa NNW 1 km/h 14.5 km/h 57% 0 mm 0 W/m2
00:44 -9.7 °C -16.7 °C 1033.4 hPa NNW 3.7 km/h 16.1 km/h 57% 0 mm 0 W/m2
00:49 -9.8 °C -16.7 °C 1033.4 hPa NNW 3.4 km/h 16.1 km/h 57% 0 mm 0 W/m2
00:54 -9.9 °C -16.8 °C 1033.4 hPa NNW 0.5 km/h 16.1 km/h 57.1% 0 mm 0 W/m2
00:59 -10.1 °C -16.8 °C 1033.4 hPa NNW 3.7 km/h 16.1 km/h 57.6% 0 mm 0 W/m2
01:04 -10.1 °C -16.9 °C 1033.4 hPa NNW 2.7 km/h 16.1 km/h 57.7% 0 mm 0 W/m2
01:09 -10.2 °C -17 °C 1033.4 hPa NNW 2.3 km/h 16.1 km/h 57.4% 0 mm 0 W/m2
01:14 -10.3 °C -17 °C 1033.4 hPa North 1.9 km/h 16.1 km/h 57.8% 0 mm 0 W/m2
01:19 -10.3 °C -17 °C 1033.4 hPa North 2.3 km/h 16.1 km/h 58.1% 0 mm 0 W/m2
01:24 -10.4 °C -16.9 °C 1033.4 hPa North 2.3 km/h 16.1 km/h 59% 0 mm 0 W/m2
01:29 -10.5 °C -16.9 °C 1033.4 hPa NNW 5.3 km/h 16.1 km/h 59% 0 mm 0 W/m2
01:34 -10.6 °C -17.1 °C 1033.4 hPa NNW 3.2 km/h 16.1 km/h 59% 0 mm 0 W/m2
01:39 -10.7 °C -17.1 °C 1033.1 hPa NW 3.2 km/h 16.1 km/h 59.2% 0 mm 0 W/m2
01:44 -10.8 °C -17 °C 1033.1 hPa NNW 5.5 km/h 16.1 km/h 60% 0 mm 0 W/m2
01:49 -10.8 °C -17.1 °C 1033.4 hPa NNW 2.7 km/h 16.1 km/h 60% 0 mm 0 W/m2
01:54 -10.9 °C -17.2 °C 1033.1 hPa NNW 4.8 km/h 16.1 km/h 60% 0 mm 0 W/m2
01:59 -11 °C -17.3 °C 1033.1 hPa NNW 5.8 km/h 16.1 km/h 60% 0 mm 0 W/m2
02:04 -11.1 °C -17.2 °C 1033.1 hPa NNW 4 km/h 16.1 km/h 60.5% 0 mm 0 W/m2
02:09 -11.2 °C -17.2 °C 1033.1 hPa NW 3.5 km/h 11.3 km/h 61% 0 mm 0 W/m2
02:14 -11.2 °C -17.2 °C 1032.7 hPa NNW 7.1 km/h 16.1 km/h 61% 0 mm 0 W/m2
02:19 -11.3 °C -17.3 °C 1032.7 hPa NNW 4 km/h 16.1 km/h 61% 0 mm 0 W/m2
02:24 -11.3 °C -17.2 °C 1032.7 hPa NNW 2.6 km/h 16.1 km/h 62% 0 mm 0 W/m2
02:29 -11.4 °C -17.2 °C 1032.7 hPa NNW 5.3 km/h 16.1 km/h 62% 0 mm 0 W/m2
02:34 -11.5 °C -17.1 °C 1032.7 hPa NNW 4.5 km/h 16.1 km/h 62.9% 0 mm 0 W/m2
02:39 -11.6 °C -17.3 °C 1032.7 hPa NNW 4.7 km/h 12.9 km/h 62.5% 0 mm 0 W/m2
02:44 -11.6 °C -17.2 °C 1032.7 hPa NNW 2.6 km/h 12.9 km/h 63% 0 mm 0 W/m2
02:49 -11.7 °C -17.3 °C 1032.4 hPa NNW 4.3 km/h 12.9 km/h 63% 0 mm 0 W/m2
02:54 -11.7 °C -17.3 °C 1032.4 hPa North 4.5 km/h 12.9 km/h 63% 0 mm 0 W/m2
02:59 -11.7 °C -17.3 °C 1032.1 hPa North 1.9 km/h 12.9 km/h 63% 0 mm 0 W/m2
03:04 -11.8 °C -17.4 °C 1032.1 hPa North 4 km/h 12.9 km/h 63% 0 mm 0 W/m2
03:09 -11.8 °C -17.4 °C 1032.1 hPa North 1.9 km/h 8 km/h 63.1% 0 mm 0 W/m2
03:14 -11.8 °C -17.3 °C 1032.1 hPa North 1.9 km/h 8 km/h 64% 0 mm 0 W/m2
03:19 -11.9 °C -17.3 °C 1032.1 hPa NNW 2.1 km/h 9.7 km/h 64% 0 mm 0 W/m2
03:24 -11.9 °C -17.3 °C 1032.1 hPa NNW 1.4 km/h 9.7 km/h 64% 0 mm 0 W/m2
03:29 -12 °C -17.4 °C 1031.7 hPa NNW 5.3 km/h 11.3 km/h 64% 0 mm 0 W/m2
03:34 -12 °C -17.4 °C 1031.7 hPa NNW 3.9 km/h 12.9 km/h 64% 0 mm 0 W/m2
03:39 -12.1 °C -17.4 °C 1031.7 hPa NNW 2.9 km/h 14.5 km/h 64.2% 0 mm 0 W/m2
03:44 -12.1 °C -17.4 °C 1031.7 hPa NNW 2.3 km/h 14.5 km/h 64.3% 0 mm 0 W/m2
03:49 -12.1 °C -17.4 °C 1031.7 hPa NNW 2.3 km/h 14.5 km/h 64.7% 0 mm 0 W/m2
03:54 -12.1 °C -17.4 °C 1031.7 hPa NNW 2.6 km/h 14.5 km/h 64.8% 0 mm 0 W/m2
03:59 -12.2 °C -17.4 °C 1031.7 hPa NNW 4.2 km/h 14.5 km/h 64.9% 0 mm 0 W/m2
04:00 -12.2 °C -17.6 °C 1031.7 hPa Calm   14.5 km/h 64% 0 mm 0 W/m2
04:09 -12.2 °C -17.4 °C 1031.4 hPa NNW 2.1 km/h 9.7 km/h 65% 0 mm 0 W/m2
04:14 -12.2 °C -17.4 °C 1031.4 hPa NNW 3.9 km/h 14.5 km/h 65% 0 mm 0 W/m2
04:19 -12.2 °C -17.4 °C 1031.7 hPa NNW 3.4 km/h 14.5 km/h 65% 0 mm 0 W/m2
04:24 -12.3 °C -17.5 °C 1031.4 hPa North 2.6 km/h 14.5 km/h 65% 0 mm 0 W/m2
04:29 -12.3 °C -17.5 °C 1031.4 hPa NNW 4.7 km/h 16.1 km/h 65% 0 mm 0 W/m2
04:34 -12.3 °C -17.5 °C 1031.4 hPa North 2.3 km/h 16.1 km/h 65% 0 mm 0 W/m2
04:39 -12.3 °C -17.5 °C 1031.4 hPa NNW 4.2 km/h 9.7 km/h 65% 0 mm 0 W/m2
04:44 -12.3 °C -17.6 °C 1031.4 hPa NNW 3.2 km/h 9.7 km/h 65% 0 mm 0 W/m2
04:49 -12.3 °C -17.6 °C 1031.4 hPa NNW 1 km/h 9.7 km/h 65% 0 mm 0 W/m2
04:54 -12.3 °C -17.6 °C 1031 hPa NNW 4.5 km/h 14.5 km/h 65% 0 mm 0 W/m2
04:59 -12.3 °C -17.6 °C 1031 hPa North 1.6 km/h 14.5 km/h 65% 0 mm 0 W/m2
05:04 -12.4 °C -17.6 °C 1031 hPa North 2.9 km/h 14.5 km/h 65% 0 mm 0 W/m2
05:09 -12.4 °C -17.4 °C 1030.7 hPa NNW 2.4 km/h 9.7 km/h 66% 0 mm 0 W/m2
05:14 -12.4 °C -17.5 °C 1030.7 hPa NNW 2.9 km/h 9.7 km/h 66% 0 mm 0 W/m2
05:19 -12.4 °C -17.5 °C 1030.7 hPa NNW 4.5 km/h 16.1 km/h 66% 0 mm 0 W/m2
05:24 -12.5 °C -17.5 °C 1030.7 hPa NNW 2.4 km/h 16.1 km/h 66% 0 mm 0 W/m2
05:29 -12.5 °C -17.6 °C 1030.7 hPa NNW 2.9 km/h 16.1 km/h 66% 0 mm 0 W/m2
05:34 -12.6 °C -17.6 °C 1030.7 hPa NNW 1.9 km/h 16.1 km/h 66% 0 mm 0 W/m2
05:39 -12.6 °C -17.6 °C 1030.7 hPa NNW 3.7 km/h 11.3 km/h 66% 0 mm 0 W/m2
05:44 -12.6 °C -17.6 °C 1030.7 hPa NNW 2.9 km/h 11.3 km/h 66.1% 0 mm 0 W/m2
05:49 -12.6 °C -17.4 °C 1030.7 hPa NNW 2.6 km/h 11.3 km/h 67% 0 mm 0 W/m2
05:54 -12.7 °C -17.5 °C 1030.7 hPa NNW 2.4 km/h 11.3 km/h 67% 0 mm 0 W/m2
05:59 -12.7 °C -17.5 °C 1031 hPa NNW 1.8 km/h 11.3 km/h 67% 0 mm 0 W/m2
06:04 -12.7 °C -17.5 °C 1031 hPa NNW 1.3 km/h 11.3 km/h 67% 0 mm 0 W/m2
06:09 -12.7 °C -17.6 °C 1031 hPa NNW 1 km/h 8 km/h 67% 0 mm 0 W/m2
06:14 -12.7 °C -17.6 °C 1031 hPa NNW 1.1 km/h 8 km/h 67% 0 mm 0 W/m2
06:19 -12.7 °C -17.4 °C 1031 hPa NNW 0.3 km/h 8 km/h 67.6% 0 mm 0 W/m2
06:24 -12.8 °C -17.6 °C 1031 hPa NNW 2.7 km/h 11.3 km/h 67.5% 0 mm 0 W/m2
06:29 -12.8 °C -17.6 °C 1031 hPa NNW 4 km/h 14.5 km/h 67.4% 0 mm 0 W/m2
06:34 -12.8 °C -17.6 °C 1031 hPa NNW 1.1 km/h 14.5 km/h 67.1% 0 mm 0 W/m2
06:39 -12.8 °C -17.5 °C 1031 hPa NNW 3.1 km/h 9.7 km/h 67.8% 0 mm 0 W/m2
06:44 -12.8 °C -17.5 °C 1031 hPa NW 4.5 km/h 9.7 km/h 68% 0 mm 0 W/m2
06:49 -12.8 °C -17.6 °C 1031 hPa NNW 5 km/h 9.7 km/h 67.7% 0 mm 0 W/m2
06:54 -12.8 °C -17.6 °C 1031 hPa NNW 0.6 km/h 9.7 km/h 67.7% 0 mm 0 W/m2
06:59 -12.8 °C -17.6 °C 1031 hPa NNW 1.3 km/h 9.7 km/h 67.6% 0 mm 0 W/m2
07:04 -12.9 °C -17.7 °C 1031 hPa NNW 2.1 km/h 9.7 km/h 67.3% 0 mm 0 W/m2
07:09 -12.9 °C -17.6 °C 1031 hPa North 4 km/h 9.7 km/h 68% 0 mm 0 W/m2
07:14 -12.9 °C -17.6 °C 1031 hPa NNW 5.5 km/h 16.1 km/h 67.6% 0 mm 0 W/m2
07:19 -12.9 °C -17.7 °C 1031 hPa NNW 3.4 km/h 16.1 km/h 67.4% 0 mm 5 W/m2
07:24 -12.9 °C -17.7 °C 1031 hPa NNW 6.6 km/h 16.1 km/h 67.5% 0 mm 7 W/m2
07:29 -12.9 °C -17.7 °C 1031 hPa NNW 2.4 km/h 16.1 km/h 67.3% 0 mm 9 W/m2
07:34 -12.9 °C -17.6 °C 1031 hPa NNW 0.6 km/h 16.1 km/h 68% 0 mm 11 W/m2
07:39 -12.9 °C -17.6 °C 1031.4 hPa NNW 3.1 km/h 6.4 km/h 68% 0 mm 12 W/m2
07:44 -12.9 °C -17.6 °C 1031.4 hPa NNW 5 km/h 11.3 km/h 68% 0 mm 21 W/m2
07:49 -12.9 °C -17.6 °C 1031.4 hPa NNW 5 km/h 16.1 km/h 68% 0 mm 49 W/m2
07:54 -12.8 °C -17.4 °C 1031.4 hPa NNW 3.4 km/h 16.1 km/h 68% 0 mm 49 W/m2
07:59 -12.6 °C -17.3 °C 1031.4 hPa NNW 6.1 km/h 16.1 km/h 67.5% 0 mm 49 W/m2
08:09 -12.1 °C -17.1 °C 1031.4 hPa NNW 3.1 km/h 16.1 km/h 66.2% 0 mm 62 W/m2
08:14 -11.8 °C -16.9 °C 1031.4 hPa NNW 4.8 km/h 16.1 km/h 65.2% 0 mm 69 W/m2
08:19 -11.6 °C -16.9 °C 1031.4 hPa North 5.1 km/h 16.1 km/h 64.5% 0 mm 102 W/m2
08:24 -11.3 °C -16.8 °C 1031.4 hPa NNW 3.9 km/h 16.1 km/h 63.8% 0 mm 144 W/m2
08:29 -11.1 °C -16.7 °C 1031.4 hPa NNW 6.4 km/h 22.5 km/h 63% 0 mm 188 W/m2
08:34 -10.8 °C -16.6 °C 1031.4 hPa North 4.7 km/h 22.5 km/h 62.3% 0 mm 199 W/m2
08:39 -10.3 °C -16.2 °C 1031.4 hPa North 1.9 km/h 11.3 km/h 62.2% 0 mm 244 W/m2
08:44 -9.9 °C -16 °C 1031 hPa North 2.3 km/h 11.3 km/h 60.7% 0 mm 265 W/m2
08:49 -9.4 °C -15.8 °C 1031 hPa North 2.7 km/h 11.3 km/h 59.9% 0 mm 272 W/m2
08:54 -9.1 °C -15.6 °C 1031 hPa North 3.7 km/h 11.3 km/h 59% 0 mm 287 W/m2
08:59 -8.7 °C -15.3 °C 1031 hPa North 1 km/h 11.3 km/h 58.3% 0 mm 299 W/m2
09:04 -8.3 °C -15.1 °C 1030.7 hPa NNW 4.3 km/h 16.1 km/h 57.8% 0 mm 306 W/m2
09:09 -7.9 °C -15 °C 1030.7 hPa NNW 1.6 km/h 16.1 km/h 56.9% 0 mm 322 W/m2
09:14 -7.7 °C -14.9 °C 1030.4 hPa North 2.6 km/h 16.1 km/h 56.1% 0 mm 325 W/m2
09:19 -7.6 °C -14.8 °C 1030.4 hPa NNW 2.6 km/h 16.1 km/h 56.1% 0 mm 330 W/m2
09:24 -7.4 °C -15 °C 1030.4 hPa North 4.7 km/h 16.1 km/h 54.8% 0 mm 329 W/m2
09:29 -7.6 °C -15.5 °C 1030.4 hPa NNE 2.7 km/h 16.1 km/h 53.2% 0 mm 309 W/m2
09:34 -7.7 °C -15.1 °C 1030.7 hPa NNW 4.2 km/h 16.1 km/h 55.4% 0 mm 272 W/m2
09:39 -7.7 °C -15 °C 1030.7 hPa North 3.5 km/h 12.9 km/h 55.8% 0 mm 225 W/m2
09:44 -7.8 °C -15.1 °C 1030.4 hPa NE 1.8 km/h 12.9 km/h 55.7% 0 mm 225 W/m2
09:49 -7.9 °C -15.2 °C 1030.4 hPa North 2.4 km/h 14.5 km/h 55.9% 0 mm 309 W/m2
09:54 -7.8 °C -14.8 °C 1030.4 hPa NNE 2.4 km/h 14.5 km/h 56.9% 0 mm 258 W/m2
09:59 -7.8 °C -15.1 °C 1030 hPa North 4.7 km/h 17.7 km/h 56% 0 mm 181 W/m2
10:04 -7.9 °C -14.9 °C 1030 hPa NNW 6.4 km/h 22.5 km/h 57.1% 0 mm 190 W/m2
10:09 -8.1 °C -14.9 °C 1030 hPa NNW 5.3 km/h 22.5 km/h 57.4% 0 mm 220 W/m2
10:14 -8 °C -14.8 °C 1030 hPa NNW 4.8 km/h 22.5 km/h 58.2% 0 mm 251 W/m2
10:19 -7.9 °C -14.4 °C 1030 hPa North 3.4 km/h 22.5 km/h 59% 0 mm 311 W/m2
10:24 -7.6 °C -14.3 °C 1030 hPa NNW 4.8 km/h 22.5 km/h 58.5% 0 mm 330 W/m2
10:29 -7.4 °C -14.1 °C 1030 hPa NNW 2.7 km/h 22.5 km/h 58.6% 0 mm 475 W/m2
10:34 -7 °C -13.8 °C 1030 hPa NNW 4.5 km/h 22.5 km/h 58.7% 0 mm 485 W/m2
10:39 -6.4 °C -13.1 °C 1030 hPa NNW 2.4 km/h 16.1 km/h 59.4% 0 mm 448 W/m2
10:44 -6 °C -12.9 °C 1029.7 hPa North 4.2 km/h 16.1 km/h 57.9% 0 mm 499 W/m2
10:49 -5.6 °C -12.9 °C 1029.7 hPa NE 1.6 km/h 16.1 km/h 56.5% 0 mm 508 W/m2
10:54 -5.4 °C -13 °C 1029.7 hPa ENE 2.7 km/h 16.1 km/h 55.4% 0 mm 515 W/m2
10:59 -5.5 °C -13.1 °C 1029.7 hPa North 2.1 km/h 16.1 km/h 55.3% 0 mm 520 W/m2
11:04 -5.3 °C -12.7 °C 1029.3 hPa NNW 4 km/h 16.1 km/h 56.2% 0 mm 445 W/m2
11:09 -5.1 °C -12.3 °C 1029.3 hPa NNW 3.1 km/h 11.3 km/h 57.2% 0 mm 360 W/m2
11:14 -4.9 °C -12.3 °C 1029.3 hPa NE 4.3 km/h 11.3 km/h 56% 0 mm 118 W/m2
11:19 -4.9 °C -12.9 °C 1029 hPa ENE 1.6 km/h 11.3 km/h 53.8% 0 mm 113 W/m2
11:24 -5.2 °C -13 °C 1029 hPa NNE 2.7 km/h 11.3 km/h 54.1% 0 mm 246 W/m2
11:29 -5.2 °C -12.6 °C 1029 hPa NNW 1.8 km/h 11.3 km/h 56.4% 0 mm 246 W/m2
11:34 -5.1 °C -12.2 °C 1028.7 hPa North 1.4 km/h 11.3 km/h 57.3% 0 mm 343 W/m2
11:39 -4.9 °C -12.2 °C 1028.7 hPa NNE 1.6 km/h 8 km/h 57% 0 mm 531 W/m2
11:44 -4.9 °C -12.1 °C 1028.3 hPa NNW 2.6 km/h 14.5 km/h 57.1% 0 mm 531 W/m2
11:49 -4.7 °C -11.8 °C 1028.3 hPa North 1.8 km/h 14.5 km/h 57.6% 0 mm 306 W/m2
11:54 -4.6 °C -11.9 °C 1028.3 hPa North 1.9 km/h 14.5 km/h 56.5% 0 mm 220 W/m2
11:59 -4.6 °C -12 °C 1028 hPa NE 1.4 km/h 14.5 km/h 56% 0 mm 209 W/m2
12:09 -4.6 °C -11.8 °C 1027.7 hPa NE 2.4 km/h 9.7 km/h 56.9% 0 mm 227 W/m2
12:14 -4.5 °C -11.9 °C 1027.7 hPa NE 1.1 km/h 9.7 km/h 56.2% 0 mm 172 W/m2
12:19 -4.3 °C -11.6 °C 1027.7 hPa North 1.1 km/h 9.7 km/h 57.2% 0 mm 118 W/m2
12:24 -4.1 °C -11.3 °C 1027.7 hPa NNW 1.4 km/h 9.7 km/h 57% 0 mm 394 W/m2
12:29 -3.8 °C -11.3 °C 1027.3 hPa North 1 km/h 9.7 km/h 56% 0 mm 385 W/m2
12:34 -3.7 °C -11.4 °C 1027.3 hPa NNW 2.7 km/h 12.9 km/h 55.2% 0 mm 257 W/m2
12:39 -3.7 °C -11.5 °C 1027 hPa North 2.3 km/h 12.9 km/h 54.7% 0 mm 160 W/m2
12:44 -3.7 °C -11.4 °C 1026.6 hPa North 1.3 km/h 12.9 km/h 55% 0 mm 417 W/m2
12:49 -3.7 °C -11.3 °C 1026.6 hPa NE 2.4 km/h 12.9 km/h 55.6% 0 mm 403 W/m2
12:54 -3.8 °C -11.5 °C 1026 hPa ENE 1 km/h 12.9 km/h 55.2% 0 mm 127 W/m2
12:59 -3.7 °C -11.1 °C 1026 hPa NNE 1.9 km/h 12.9 km/h 56.8% 0 mm 176 W/m2
13:04 -3.7 °C -11.3 °C 1026 hPa NNE 1.6 km/h 12.9 km/h 55.5% 0 mm 176 W/m2
13:09 -3.8 °C -11.3 °C 1025.6 hPa NE 2.1 km/h 9.7 km/h 55.7% 0 mm 47 W/m2
13:14 -3.9 °C -11.4 °C 1025.3 hPa ENE 0.8 km/h 9.7 km/h 55.9% 0 mm 197 W/m2
13:19 -3.8 °C -10.9 °C 1025.3 hPa NE 0.8 km/h 9.7 km/h 57.5% 0 mm 160 W/m2
13:24 -3.5 °C -10.9 °C 1025.3 hPa Calm   9.7 km/h 56.6% 0 mm 316 W/m2
13:29 -3.3 °C -10.7 °C 1025.3 hPa NE 0.3 km/h 9.7 km/h 56.6% 0 mm 403 W/m2
13:34 -3 °C -10.5 °C 1024.9 hPa NE 0.8 km/h 9.7 km/h 56.1% 0 mm 216 W/m2
13:39 -2.9 °C -10.6 °C 1024.9 hPa NNE 1.4 km/h 6.4 km/h 55.2% 0 mm 183 W/m2
13:44 -2.9 °C -10.7 °C 1024.6 hPa NNE 0.5 km/h 6.4 km/h 54.9% 0 mm 220 W/m2
13:49 -2.9 °C -10.9 °C 1024.6 hPa Calm   6.4 km/h 54.3% 0 mm 109 W/m2
13:54 -2.9 °C -10.7 °C 1024.6 hPa NNE 0.5 km/h 6.4 km/h 55% 0 mm 359 W/m2
13:59 -2.9 °C -10.8 °C 1024.3 hPa Calm   6.4 km/h 54.8% 0 mm 213 W/m2
14:04 -2.8 °C -10.6 °C 1024.3 hPa NE 0.8 km/h 6.4 km/h 55.2% 0 mm 179 W/m2
14:09 -2.7 °C -10.5 °C 1024.3 hPa Calm   6.4 km/h 55.1% 0 mm 199 W/m2
14:14 -2.5 °C -10.3 °C 1024.3 hPa NE 0.8 km/h 6.4 km/h 55% 0 mm 243 W/m2
14:19 -2.2 °C -10.2 °C 1023.9 hPa NE 0.2 km/h 6.4 km/h 54.4% 0 mm 281 W/m2
14:24 -2.1 °C -10.3 °C 1023.9 hPa NE 0.2 km/h 6.4 km/h 53% 0 mm 179 W/m2
14:29 -2 °C -10.3 °C 1023.9 hPa NE 0.5 km/h 6.4 km/h 53.1% 0 mm 246 W/m2
14:34 -2 °C -10.1 °C 1023.9 hPa NE 0.6 km/h 6.4 km/h 53.8% 0 mm 236 W/m2
14:39 -2.1 °C -10.1 °C 1023.9 hPa NE 0.8 km/h 4.8 km/h 54% 0 mm 70 W/m2
14:44 -2.1 °C -10.2 °C 1023.9 hPa NNE 1 km/h 4.8 km/h 54% 0 mm 70 W/m2
14:49 -2.2 °C -10.3 °C 1023.9 hPa NNE 0.6 km/h 4.8 km/h 54% 0 mm 128 W/m2
14:54 -2.4 °C -10.3 °C 1023.9 hPa Calm   4.8 km/h 54.7% 0 mm 98 W/m2
14:59 -2.5 °C -10.3 °C 1023.9 hPa NNE 0.3 km/h 4.8 km/h 55% 0 mm 39 W/m2
15:04 -2.6 °C -10.4 °C 1023.6 hPa Calm   4.8 km/h 55% 0 mm 32 W/m2
15:09 -2.7 °C -10.3 °C 1023.9 hPa NNE 1 km/h 4.8 km/h 55.7% 0 mm 32 W/m2
15:14 -2.7 °C -10.2 °C 1023.9 hPa Calm   4.8 km/h 56% 0 mm 32 W/m2
15:19 -2.7 °C -10.1 °C 1023.6 hPa Calm   4.8 km/h 56.5% 0 mm 30 W/m2
15:24 -2.7 °C -10 °C 1023.6 hPa Calm   4.8 km/h 57% 0 mm 28 W/m2
15:29 -2.7 °C -10.1 °C 1023.6 hPa Calm   4.8 km/h 56.7% 0 mm 28 W/m2
15:34 -2.7 °C -10.2 °C 1023.6 hPa Calm   4.8 km/h 56% 0 mm 25 W/m2
15:39 -2.7 °C -10.2 °C 1023.6 hPa Calm     56% 0 mm 23 W/m2
15:44 -2.7 °C -10.2 °C 1023.2 hPa Calm     56.2% 0 mm 23 W/m2
15:49 -2.7 °C -10.1 °C 1023.2 hPa Calm     57% 0 mm 23 W/m2
15:54 -2.7 °C -10.1 °C 1023.2 hPa Calm     57% 0 mm 23 W/m2
15:59 -2.7 °C -10.1 °C 1023.2 hPa Calm     57% 0 mm 26 W/m2
16:00 -2.7 °C -10.1 °C 1022.9 hPa Calm     57% 0 mm 26 W/m2
16:09 -2.8 °C -10.1 °C 1022.9 hPa Calm     57% 0 mm 25 W/m2
16:14 -2.8 °C -10 °C 1022.6 hPa Calm     57.5% 0 mm 21 W/m2
16:19 -2.8 °C -9.9 °C 1022.6 hPa Calm     58% 0 mm 18 W/m2
16:24 -2.8 °C -9.9 °C 1022.6 hPa Calm     58% 0 mm 14 W/m2
16:29 -2.9 °C -9.8 °C 1022.2 hPa Calm     58.7% 0 mm 12 W/m2
16:34 -2.9 °C -9.8 °C 1021.9 hPa Calm     59% 0 mm 11 W/m2
16:39 -3 °C -9.9 °C 1021.9 hPa Calm     59% 0 mm 11 W/m2
16:44 -3.1 °C -9.9 °C 1021.9 hPa Calm     59% 0 mm 9 W/m2
16:49 -3.1 °C -10 °C 1021.9 hPa Calm     59% 0 mm 5 W/m2
16:54 -3.2 °C -10.1 °C 1021.9 hPa Calm     59% 0 mm 0 W/m2
16:59 -3.2 °C -9.9 °C 1021.9 hPa Calm     60% 0 mm 0 W/m2
17:04 -3.3 °C -9.9 °C 1021.9 hPa Calm     60% 0 mm 0 W/m2
17:09 -3.4 °C -10 °C 1021.6 hPa Calm     60% 0 mm 0 W/m2
17:14 -3.4 °C -10.1 °C 1021.6 hPa Calm     60.1% 0 mm 0 W/m2
17:19 -3.5 °C -9.9 °C 1021.6 hPa Calm     61% 0 mm 0 W/m2
17:24 -3.6 °C -10 °C 1021.9 hPa Calm     61% 0 mm 0 W/m2
17:29 -3.6 °C -9.9 °C 1021.9 hPa Calm     61.5% 0 mm 0 W/m2
17:34 -3.6 °C -9.7 °C 1021.9 hPa Calm     62.3% 0 mm 0 W/m2
17:39 -3.6 °C -9.6 °C 1021.6 hPa Calm     63% 0 mm 0 W/m2
17:44 -3.6 °C -9.7 °C 1021.6 hPa Calm     62.7% 0 mm 0 W/m2
17:49 -3.7 °C -9.9 °C 1021.6 hPa Calm     62.2% 0 mm 0 W/m2
17:54 -3.8 °C -9.8 °C 1021.6 hPa Calm     62.8% 0 mm 0 W/m2
17:59 -3.9 °C -9.9 °C 1021.6 hPa Calm     63% 0 mm 0 W/m2
18:04 -3.9 °C -9.9 °C 1021.6 hPa Calm     63% 0 mm 0 W/m2
18:09 -3.9 °C -9.9 °C 1021.6 hPa Calm     63% 0 mm 0 W/m2
18:14 -4 °C -9.8 °C 1021.6 hPa Calm     64% 0 mm 0 W/m2
18:19 -4.1 °C -9.7 °C 1021.2 hPa Calm     64.5% 0 mm 0 W/m2
18:24 -4.1 °C -9.8 °C 1021.2 hPa Calm     64.4% 0 mm 0 W/m2
18:29 -4.2 °C -9.9 °C 1021.2 hPa Calm     64% 0 mm 0 W/m2
18:34 -4.2 °C -9.8 °C 1021.2 hPa Calm     64.7% 0 mm 0 W/m2
18:39 -4.2 °C -9.8 °C 1020.9 hPa Calm     65% 0 mm 0 W/m2
18:44 -4.3 °C -9.9 °C 1020.9 hPa Calm     65% 0 mm 0 W/m2
18:49 -4.3 °C -9.9 °C 1020.9 hPa Calm     65% 0 mm 0 W/m2
18:54 -4.4 °C -9.8 °C 1020.9 hPa Calm     66% 0 mm 0 W/m2
18:59 -4.4 °C -9.7 °C 1020.9 hPa Calm     66.7% 0 mm 0 W/m2
19:04 -4.5 °C -9.7 °C 1020.5 hPa Calm     67% 0 mm 0 W/m2
19:09 -4.6 °C -9.8 °C 1020.5 hPa Calm     67% 0 mm 0 W/m2
19:14 -4.7 °C -9.9 °C 1020.9 hPa Calm     67% 0 mm 0 W/m2
19:19 -4.8 °C -9.9 °C 1020.9 hPa Calm     67.8% 0 mm 0 W/m2
19:24 -5 °C -9.9 °C 1020.9 hPa Calm     68.5% 0 mm 0 W/m2
19:29 -5.2 °C -9.9 °C 1020.5 hPa Calm     69.3% 0 mm 0 W/m2
19:34 -5.3 °C -9.9 °C 1020.5 hPa Calm     70% 0 mm 0 W/m2
19:39 -5.4 °C -9.9 °C 1020.5 hPa Calm     70.4% 0 mm 0 W/m2
19:44 -5.5 °C -9.9 °C 1020.2 hPa Calm     71% 0 mm 0 W/m2
19:49 -5.6 °C -9.9 °C 1019.9 hPa Calm     71.7% 0 mm 0 W/m2
19:54 -5.6 °C -9.7 °C 1020.2 hPa Calm     72.9% 0 mm 0 W/m2
19:59 -5.6 °C -9.6 °C 1020.5 hPa Calm     73% 0 mm 0 W/m2
20:00 -5.6 °C -9.6 °C 1020.2 hPa Calm     73% 0 mm 0 W/m2
20:09 -5.6 °C -9.7 °C 1020.2 hPa Calm     73% 0 mm 0 W/m2
20:14 -5.7 °C -9.7 °C 1020.5 hPa Calm     73% 0 mm 0 W/m2
20:19 -5.7 °C -9.7 °C 1020.2 hPa Calm     73.5% 0 mm 0 W/m2
20:24 -5.8 °C -9.6 °C 1019.9 hPa Calm     74.4% 0 mm 0 W/m2
20:29 -5.8 °C -9.5 °C 1019.9 hPa Calm     75% 0 mm 0 W/m2
20:34 -5.8 °C -9.7 °C 1019.9 hPa Calm     74.3% 0 mm 0 W/m2
20:39 -5.9 °C -9.8 °C 1019.9 hPa Calm     74.1% 0 mm 0 W/m2
20:44 -5.9 °C -9.7 °C 1019.5 hPa Calm     75% 0 mm 0 W/m2
20:49 -5.9 °C -9.7 °C 1019.5 hPa Calm     75% 0 mm 0 W/m2
20:54 -5.9 °C -9.5 °C 1019.5 hPa Calm     75.9% 0 mm 0 W/m2
20:59 -5.9 °C -9.5 °C 1019.5 hPa Calm     76% 0 mm 0 W/m2
21:03 -5.9 °C -9.4 °C 1019.5 hPa Calm     76% 0 mm 0 W/m2
Hartford County Weather
Compliments of Weather Underground - 4 mb